Time;durP1;ratioP1;P1;durP2;ratioP2;P2;SDS_P1;SDS_P2;PMS_P1;PMS_P2;Temp;Humidity;BMP_temperature;BMP_pressure;BME280_temperature;BME280_humidity;BME280_pressure;Samples;Min_cycle;Max_cycle;Signal;HPM_P1;HPM_P2
2023/02/14 00:00:30;;;;;;;0.60;0.40;;;;;;;;;;4147846;28;20054;-44
2023/02/14 00:02:31;;;;;;;0.20;0.20;;;;;;;;;;4147478;28;20046;-44
2023/02/14 00:04:33;;;;;;;0.55;0.28;;;;;;;;;;4147437;28;20058;-44
2023/02/14 00:06:37;;;;;;;0.30;0.20;;;;;;;;;;4146564;28;20173;-44
2023/02/14 00:08:39;;;;;;;0.35;0.20;;;;;;;;;;4130163;28;20061;-41
2023/02/14 00:10:41;;;;;;;0.15;0.10;;;;;;;;;;4147458;28;20107;-45
2023/02/14 00:12:42;;;;;;;0.63;0.20;;;;;;;;;;4146876;28;20188;-43
2023/02/14 00:17:03;;;;;;;0.47;0.13;;;;;;;;;;4147074;28;20057;-44
2023/02/14 00:19:05;;;;;;;1.23;0.30;;;;;;;;;;4129740;28;20058;-44
2023/02/14 00:21:06;;;;;;;0.85;0.20;;;;;;;;;;4146709;28;20053;-42
2023/02/14 00:23:08;;;;;;;0.30;0.20;;;;;;;;;;4129356;28;20050;-45
2023/02/14 00:25:09;;;;;;;0.40;0.20;;;;;;;;;;4129895;28;20050;-44
2023/02/14 00:27:11;;;;;;;0.93;0.25;;;;;;;;;;4129684;28;20058;-46
2023/02/14 00:29:15;;;;;;;0.85;0.30;;;;;;;;;;4129685;28;20058;-42
2023/02/14 00:31:17;;;;;;;0.25;0.10;;;;;;;;;;4129250;28;20493;-42
2023/02/14 00:33:19;;;;;;;0.43;0.30;;;;;;;;;;4129554;28;20128;-44
2023/02/14 00:35:20;;;;;;;0.77;0.20;;;;;;;;;;4146950;28;20081;-44
2023/02/14 00:37:22;;;;;;;0.63;0.28;;;;;;;;;;4146564;28;20112;-41
2023/02/14 00:39:23;;;;;;;0.10;0.10;;;;;;;;;;4129383;28;20066;-43
2023/02/14 00:41:24;;;;;;;0.40;0.20;;;;;;;;;;4129384;28;20105;-43
2023/02/14 00:43:26;;;;;;;0.68;0.20;;;;;;;;;;4129578;28;20054;-47
2023/02/14 00:45:27;;;;;;;0.88;0.30;;;;;;;;;;4146926;28;20460;-44
2023/02/14 00:47:29;;;;;;;0.80;0.30;;;;;;;;;;4146670;28;20096;-45
2023/02/14 00:49:30;;;;;;;0.75;0.20;;;;;;;;;;4146655;28;20054;-43
2023/02/14 00:51:33;;;;;;;0.47;0.20;;;;;;;;;;4128870;28;20050;-42
2023/02/14 00:53:36;;;;;;;0.47;0.28;;;;;;;;;;4112768;28;20476;-49
2023/02/14 00:55:39;;;;;;;0.63;0.30;;;;;;;;;;4128504;28;20078;-43
2023/02/14 00:57:42;;;;;;;1.13;0.30;;;;;;;;;;4129213;28;20062;-44
2023/02/14 00:59:43;;;;;;;0.63;0.30;;;;;;;;;;4146767;28;20378;-43
2023/02/14 01:01:44;;;;;;;0.95;0.30;;;;;;;;;;4146916;28;20081;-45
2023/02/14 01:03:46;;;;;;;0.38;0.20;;;;;;;;;;4146762;28;20456;-46
2023/02/14 01:05:48;;;;;;;0.20;0.20;;;;;;;;;;4146432;28;20063;-44
2023/02/14 01:07:49;;;;;;;0.75;0.30;;;;;;;;;;4146437;28;20061;-44
2023/02/14 01:09:50;;;;;;;0.52;0.20;;;;;;;;;;4146998;28;20050;-43
2023/02/14 01:11:51;;;;;;;0.57;0.25;;;;;;;;;;4146421;28;20053;-47
2023/02/14 01:13:55;;;;;;;1.65;0.30;;;;;;;;;;4128933;28;20058;-44
2023/02/14 01:15:57;;;;;;;0.10;0.10;;;;;;;;;;4146508;28;20060;-43
2023/02/14 01:17:59;;;;;;;0.45;0.20;;;;;;;;;;4146461;28;20103;-43
2023/02/14 01:20:00;;;;;;;0.57;0.30;;;;;;;;;;4146550;28;20145;-44
2023/02/14 01:22:01;;;;;;;0.98;0.30;;;;;;;;;;4146412;28;20470;-46
2023/02/14 01:24:05;;;;;;;0.10;0.10;;;;;;;;;;4146393;28;20104;-43
2023/02/14 01:26:08;;;;;;;0.98;0.25;;;;;;;;;;4146382;28;20501;-43
2023/02/14 01:28:09;;;;;;;0.30;0.20;;;;;;;;;;4146710;28;20053;-43
2023/02/14 01:30:12;;;;;;;0.43;0.30;;;;;;;;;;4146623;28;20053;-45
2023/02/14 01:32:15;;;;;;;0.50;0.30;;;;;;;;;;4128784;28;20066;-47
2023/02/14 01:34:17;;;;;;;0.40;0.30;;;;;;;;;;4146597;28;20439;-43
2023/02/14 01:36:24;;;;;;;0.13;0.10;;;;;;;;;;4145976;28;20066;-44
2023/02/14 01:38:25;;;;;;;0.20;0.20;;;;;;;;;;4129070;28;20392;-42
2023/02/14 01:40:26;;;;;;;0.35;0.30;;;;;;;;;;4128782;28;20065;-45
2023/02/14 01:42:28;;;;;;;1.05;0.30;;;;;;;;;;4128866;28;20046;-46
2023/02/14 01:44:31;;;;;;;0.45;0.40;;;;;;;;;;4146583;28;20057;-42
2023/02/14 01:46:36;;;;;;;0.45;0.30;;;;;;;;;;4146363;28;20050;-42
2023/02/14 01:48:38;;;;;;;0.95;0.20;;;;;;;;;;4129139;28;20090;-43
2023/02/14 01:50:42;;;;;;;0.30;0.30;;;;;;;;;;4128976;28;20054;-47
2023/02/14 01:52:52;;;;;;;0.98;0.20;;;;;;;;;;4145910;28;20097;-44
2023/02/14 01:55:14;;;;;;;1.27;0.20;;;;;;;;;;4145451;28;20058;-43
2023/02/14 01:57:20;;;;;;;0.20;0.20;;;;;;;;;;4106961;28;20495;-44
2023/02/14 01:59:24;;;;;;;0.40;0.30;;;;;;;;;;4118927;28;20490;-42
2023/02/14 02:01:26;;;;;;;0.30;0.20;;;;;;;;;;4128692;28;20099;-43
2023/02/14 02:03:38;;;;;;;0.10;0.10;;;;;;;;;;4145927;28;20417;-44
2023/02/14 02:05:44;;;;;;;0.25;0.20;;;;;;;;;;4121523;28;20395;-43
2023/02/14 02:07:45;;;;;;;0.20;0.20;;;;;;;;;;4099265;29;20063;-44
2023/02/14 02:09:59;;;;;;;0.25;0.25;;;;;;;;;;4131720;28;20134;-42
2023/02/14 02:12:01;;;;;;;0.22;0.20;;;;;;;;;;4148701;28;20054;-43
2023/02/14 02:14:03;;;;;;;0.25;0.20;;;;;;;;;;4131620;28;20533;-46
2023/02/14 02:16:30;;;;;;;0.20;0.20;;;;;;;;;;4148713;28;20062;-43
2023/02/14 02:18:59;;;;;;;0.17;0.17;;;;;;;;;;4134943;28;20642;-43
2023/02/14 02:21:19;;;;;;;0.45;0.15;;;;;;;;;;4149013;28;20054;-42
2023/02/14 02:23:58;;;;;;;0.25;0.20;;;;;;;;;;4131825;28;20066;-43
2023/02/14 02:26:11;;;;;;;0.57;0.30;;;;;;;;;;4149001;28;20050;-43
2023/02/14 02:28:32;;;;;;;0.10;0.10;;;;;;;;;;4136583;28;20425;-43
2023/02/14 02:30:55;;;;;;;0.20;0.10;;;;;;;;;;4148859;28;20493;-42
2023/02/14 02:33:22;;;;;;;0.68;0.30;;;;;;;;;;4130946;28;20081;-42
2023/02/14 02:35:30;;;;;;;0.30;0.20;;;;;;;;;;4148981;28;20046;-43
2023/02/14 02:37:37;;;;;;;0.30;0.20;;;;;;;;;;4148453;28;20053;-45
2023/02/14 02:39:53;;;;;;;0.65;0.30;;;;;;;;;;4118846;28;20061;-44
2023/02/14 02:42:04;;;;;;;0.13;0.13;;;;;;;;;;4115342;28;20117;-43
2023/02/14 02:44:26;;;;;;;0.60;0.30;;;;;;;;;;4115307;28;20494;-43
2023/02/14 02:46:48;;;;;;;0.25;0.20;;;;;;;;;;4130949;28;20488;-43
2023/02/14 02:48:58;;;;;;;0.40;0.30;;;;;;;;;;4133079;28;20055;-43
2023/02/14 02:53:31;;;;;;;0.30;0.20;;;;;;;;;;4109895;28;20109;-44
2023/02/14 02:58:12;;;;;;;0.60;0.30;;;;;;;;;;4117445;28;20050;-42
2023/02/14 03:00:15;;;;;;;0.20;0.20;;;;;;;;;;4148520;28;20053;-44
2023/02/14 03:02:26;;;;;;;0.38;0.30;;;;;;;;;;4130699;28;20054;-43
2023/02/14 03:05:01;;;;;;;0.30;0.20;;;;;;;;;;4147494;28;20053;-43
2023/02/14 03:06:58;;;;;;;0.20;0.20;;;;;;;;;;4114614;28;20059;-42
2023/02/14 03:09:11;;;;;;;0.60;0.22;;;;;;;;;;4130737;28;20117;-40
2023/02/14 03:11:13;;;;;;;0.38;0.20;;;;;;;;;;4114700;28;20050;-45
2023/02/14 03:13:26;;;;;;;0.35;0.30;;;;;;;;;;4114509;28;20061;-43
2023/02/14 03:16:01;;;;;;;0.60;0.30;;;;;;;;;;4130280;28;20054;-43
2023/02/14 03:18:26;;;;;;;0.30;0.20;;;;;;;;;;4139451;28;20053;-43
2023/02/14 03:20:46;;;;;;;0.10;0.10;;;;;;;;;;4114545;28;20077;-43
2023/02/14 03:23:26;;;;;;;0.60;0.30;;;;;;;;;;4147460;28;20068;-43
2023/02/14 03:25:46;;;;;;;0.30;0.20;;;;;;;;;;4147608;28;20124;-42
2023/02/14 03:27:57;;;;;;;1.00;0.20;;;;;;;;;;4124238;28;20486;-43
2023/02/14 03:30:20;;;;;;;0.13;0.10;;;;;;;;;;4114556;28;20058;-44
2023/02/14 03:32:48;;;;;;;1.88;0.20;;;;;;;;;;4130487;28;20496;-45
2023/02/14 03:35:03;;;;;;;0.25;0.20;;;;;;;;;;4147670;28;20460;-47
2023/02/14 03:37:10;;;;;;;0.15;0.10;;;;;;;;;;4147218;28;20054;-44
2023/02/14 03:39:22;;;;;;;0.50;0.20;;;;;;;;;;4114532;28;20094;-43
2023/02/14 03:41:28;;;;;;;1.08;0.20;;;;;;;;;;4125471;28;20054;-44
2023/02/14 03:43:36;;;;;;;0.40;0.20;;;;;;;;;;4130039;28;20560;-43
2023/02/14 03:45:50;;;;;;;0.45;0.20;;;;;;;;;;4130352;28;20058;-42
2023/02/14 03:47:53;;;;;;;0.28;0.20;;;;;;;;;;4130471;28;20418;-49
2023/02/14 03:50:09;;;;;;;0.80;0.30;;;;;;;;;;4130001;28;20054;-44
2023/02/14 03:52:11;;;;;;;0.28;0.20;;;;;;;;;;4129388;28;20050;-43
2023/02/14 03:54:13;;;;;;;0.25;0.20;;;;;;;;;;4113893;28;20182;-43
2023/02/14 03:56:21;;;;;;;0.25;0.20;;;;;;;;;;4129925;28;20055;-43
2023/02/14 03:58:26;;;;;;;0.73;0.30;;;;;;;;;;4130129;28;20058;-42
2023/02/14 04:00:29;;;;;;;0.30;0.20;;;;;;;;;;4130183;28;20588;-42
2023/02/14 04:02:34;;;;;;;0.15;0.10;;;;;;;;;;4146004;28;20057;-44
2023/02/14 04:04:41;;;;;;;0.20;0.20;;;;;;;;;;4147350;28;20399;-43
2023/02/14 04:06:42;;;;;;;0.60;0.40;;;;;;;;;;4129492;28;20059;-41
2023/02/14 04:08:45;;;;;;;0.20;0.10;;;;;;;;;;4129938;28;20105;-43
2023/02/14 04:10:46;;;;;;;0.30;0.15;;;;;;;;;;4146861;28;20058;-41
2023/02/14 04:12:47;;;;;;;0.57;0.40;;;;;;;;;;4146655;28;20493;-42
2023/02/14 04:14:48;;;;;;;0.30;0.20;;;;;;;;;;4147433;28;20075;-43
2023/02/14 04:19:21;;;;;;;0.98;0.45;;;;;;;;;;4145925;28;20049;-44
2023/02/14 04:21:22;;;;;;;0.32;0.30;;;;;;;;;;4146736;28;20062;-45
2023/02/14 04:23:24;;;;;;;0.38;0.20;;;;;;;;;;4129596;28;20046;-43
2023/02/14 04:25:25;;;;;;;0.30;0.20;;;;;;;;;;4146616;28;20049;-44
2023/02/14 04:27:27;;;;;;;0.45;0.38;;;;;;;;;;4129717;28;20105;-43
2023/02/14 04:29:29;;;;;;;0.60;0.30;;;;;;;;;;4146970;28;20054;-44
2023/02/14 04:31:30;;;;;;;0.40;0.20;;;;;;;;;;4129702;28;20054;-43
2023/02/14 04:33:32;;;;;;;2.10;0.38;;;;;;;;;;4146769;28;20072;-43
2023/02/14 04:35:34;;;;;;;0.30;0.20;;;;;;;;;;4147168;28;20062;-44
2023/02/14 04:37:35;;;;;;;0.20;0.20;;;;;;;;;;4129075;28;20050;-42
2023/02/14 04:39:37;;;;;;;0.45;0.20;;;;;;;;;;4147092;28;20061;-43
2023/02/14 04:41:38;;;;;;;0.38;0.20;;;;;;;;;;4147209;28;20065;-42
2023/02/14 04:43:39;;;;;;;0.20;0.20;;;;;;;;;;4147095;28;20551;-44
2023/02/14 04:45:40;;;;;;;0.22;0.20;;;;;;;;;;4146915;28;20108;-42
2023/02/14 04:47:42;;;;;;;0.63;0.22;;;;;;;;;;4146816;28;20069;-45
2023/02/14 04:49:43;;;;;;;0.25;0.20;;;;;;;;;;4146989;28;20101;-44
2023/02/14 04:51:45;;;;;;;0.20;0.20;;;;;;;;;;4146118;28;20050;-44
2023/02/14 04:53:46;;;;;;;0.25;0.20;;;;;;;;;;4146723;28;20053;-43
2023/02/14 04:55:48;;;;;;;0.20;0.15;;;;;;;;;;4146877;28;20058;-43
2023/02/14 04:57:50;;;;;;;0.47;0.22;;;;;;;;;;4146692;28;20116;-44
2023/02/14 04:59:51;;;;;;;0.50;0.20;;;;;;;;;;4146446;28;20065;-45
2023/02/14 05:01:53;;;;;;;0.30;0.30;;;;;;;;;;4146876;28;20057;-45
2023/02/14 05:03:54;;;;;;;0.30;0.28;;;;;;;;;;4146654;28;20137;-45
2023/02/14 05:05:55;;;;;;;1.65;0.40;;;;;;;;;;4113288;28;20080;-46
2023/02/14 05:07:56;;;;;;;0.55;0.20;;;;;;;;;;4145999;28;20057;-45
2023/02/14 05:09:58;;;;;;;0.63;0.30;;;;;;;;;;4146646;28;20501;-46
2023/02/14 05:11:59;;;;;;;1.75;0.30;;;;;;;;;;4146469;28;20058;-47
2023/02/14 05:14:01;;;;;;;0.20;0.10;;;;;;;;;;4129043;28;20054;-46
2023/02/14 05:16:02;;;;;;;0.55;0.20;;;;;;;;;;4145617;28;20100;-41
2023/02/14 05:18:04;;;;;;;0.75;0.30;;;;;;;;;;4146354;28;20100;-47
2023/02/14 05:20:06;;;;;;;0.93;0.17;;;;;;;;;;4129528;28;20054;-44
2023/02/14 05:22:08;;;;;;;1.10;0.43;;;;;;;;;;4145936;28;20054;-43
2023/02/14 05:24:09;;;;;;;1.48;0.20;;;;;;;;;;4146739;28;20058;-42
2023/02/14 05:26:10;;;;;;;0.28;0.20;;;;;;;;;;4146169;28;20417;-42
2023/02/14 05:28:13;;;;;;;0.35;0.20;;;;;;;;;;4146743;28;20136;-41
2023/02/14 05:30:14;;;;;;;0.70;0.35;;;;;;;;;;4146706;28;20096;-44
2023/02/14 05:32:16;;;;;;;0.30;0.20;;;;;;;;;;4112894;28;20051;-44
2023/02/14 05:34:17;;;;;;;0.52;0.20;;;;;;;;;;4146299;28;20050;-47
2023/02/14 05:36:19;;;;;;;0.30;0.10;;;;;;;;;;4145929;28;20501;-48
2023/02/14 05:38:20;;;;;;;0.10;0.10;;;;;;;;;;4146585;28;20104;-44
2023/02/14 05:40:22;;;;;;;0.20;0.20;;;;;;;;;;4146498;28;20108;-43
2023/02/14 05:42:23;;;;;;;1.13;0.30;;;;;;;;;;4149298;28;20060;-45
2023/02/14 05:44:24;;;;;;;0.50;0.30;;;;;;;;;;4149073;28;20381;-45
2023/02/14 05:46:26;;;;;;;0.47;0.20;;;;;;;;;;4149497;28;20444;-45
2023/02/14 05:48:27;;;;;;;1.08;0.20;;;;;;;;;;4132440;28;20050;-43
2023/02/14 05:50:28;;;;;;;1.15;0.40;;;;;;;;;;4149440;28;20077;-43
2023/02/14 05:52:30;;;;;;;1.40;0.20;;;;;;;;;;4148600;28;20407;-47
2023/02/14 05:54:31;;;;;;;0.50;0.20;;;;;;;;;;4149218;28;20108;-45
2023/02/14 05:56:32;;;;;;;1.67;0.30;;;;;;;;;;4131372;28;20132;-47
2023/02/14 05:58:34;;;;;;;1.08;0.40;;;;;;;;;;4148842;28;20081;-45
2023/02/14 06:00:36;;;;;;;0.73;0.32;;;;;;;;;;4144198;28;20054;-44
2023/02/14 06:02:37;;;;;;;2.05;0.38;;;;;;;;;;4146600;28;20457;-43
2023/02/14 06:04:38;;;;;;;1.75;0.47;;;;;;;;;;4147247;28;20061;-44
2023/02/14 06:06:40;;;;;;;0.95;0.40;;;;;;;;;;4128869;28;20418;-43
2023/02/14 06:08:41;;;;;;;1.38;0.28;;;;;;;;;;4147040;28;20060;-43
2023/02/14 06:10:43;;;;;;;0.98;0.50;;;;;;;;;;4147080;28;20054;-46
2023/02/14 06:12:46;;;;;;;0.80;0.40;;;;;;;;;;4146428;28;20453;-47
2023/02/14 06:14:48;;;;;;;0.45;0.30;;;;;;;;;;4147213;28;20395;-44
2023/02/14 06:16:49;;;;;;;1.65;0.40;;;;;;;;;;4147348;28;20061;-44
2023/02/14 06:18:50;;;;;;;0.63;0.30;;;;;;;;;;4147207;28;20124;-44
2023/02/14 06:20:53;;;;;;;0.40;0.20;;;;;;;;;;4147006;28;20062;-44
2023/02/14 06:22:54;;;;;;;0.50;0.40;;;;;;;;;;4146523;28;20057;-45
2023/02/14 06:24:55;;;;;;;3.33;0.45;;;;;;;;;;4129158;28;20222;-44
2023/02/14 06:26:58;;;;;;;0.45;0.30;;;;;;;;;;4129260;28;20061;-44
2023/02/14 06:28:59;;;;;;;0.50;0.30;;;;;;;;;;4129498;28;20512;-44
2023/02/14 06:31:01;;;;;;;1.65;0.40;;;;;;;;;;4129338;28;20584;-45
2023/02/14 06:33:02;;;;;;;1.50;0.40;;;;;;;;;;4129334;28;20104;-44
2023/02/14 06:35:04;;;;;;;1.05;0.40;;;;;;;;;;4129252;28;20058;-42
2023/02/14 06:37:06;;;;;;;0.73;0.50;;;;;;;;;;4145667;28;20058;-44
2023/02/14 06:39:07;;;;;;;0.70;0.32;;;;;;;;;;4146879;28;20109;-46
2023/02/14 06:41:10;;;;;;;0.70;0.30;;;;;;;;;;4146634;28;20061;-48
2023/02/14 06:43:11;;;;;;;0.85;0.30;;;;;;;;;;4129388;28;20059;-44
2023/02/14 06:45:13;;;;;;;1.17;0.40;;;;;;;;;;4147090;28;20111;-44
2023/02/14 06:47:14;;;;;;;1.23;0.40;;;;;;;;;;4146483;28;20112;-46
2023/02/14 06:49:15;;;;;;;2.38;0.40;;;;;;;;;;4146480;28;20053;-47
2023/02/14 06:51:17;;;;;;;0.65;0.28;;;;;;;;;;4145763;28;20111;-43
2023/02/14 06:53:19;;;;;;;1.15;0.40;;;;;;;;;;4108673;28;20058;-43
2023/02/14 06:55:20;;;;;;;1.92;0.47;;;;;;;;;;4139666;28;20523;-45
2023/02/14 06:57:22;;;;;;;0.60;0.40;;;;;;;;;;4143641;28;20066;-46
2023/02/14 06:59:23;;;;;;;1.30;0.50;;;;;;;;;;4141079;28;20061;-43
2023/02/14 07:01:24;;;;;;;1.17;0.57;;;;;;;;;;4120713;28;20062;-41
2023/02/14 07:03:26;;;;;;;1.00;0.50;;;;;;;;;;4138487;28;20085;-45
2023/02/14 07:05:27;;;;;;;0.73;0.30;;;;;;;;;;4142549;28;20162;-43
2023/02/14 07:07:28;;;;;;;1.02;0.40;;;;;;;;;;4141762;28;20050;-43
2023/02/14 07:09:30;;;;;;;0.95;0.20;;;;;;;;;;4143991;28;20216;-44
2023/02/14 07:11:31;;;;;;;1.05;0.40;;;;;;;;;;4142090;28;20361;-42
2023/02/14 07:13:33;;;;;;;0.73;0.40;;;;;;;;;;4145476;28;20444;-45
2023/02/14 07:15:34;;;;;;;2.33;0.50;;;;;;;;;;4144094;28;20061;-43
2023/02/14 07:17:36;;;;;;;1.88;0.30;;;;;;;;;;4126006;28;20133;-45
2023/02/14 07:19:38;;;;;;;2.25;0.50;;;;;;;;;;4144528;28;20058;-44
2023/02/14 07:21:39;;;;;;;0.65;0.30;;;;;;;;;;4141066;28;20319;-46
2023/02/14 07:23:40;;;;;;;1.52;0.52;;;;;;;;;;4144454;28;20104;-49
2023/02/14 07:25:42;;;;;;;0.75;0.50;;;;;;;;;;4143873;28;20108;-47
2023/02/14 07:27:43;;;;;;;2.03;0.35;;;;;;;;;;4137267;28;20057;-42
2023/02/14 07:29:44;;;;;;;0.93;0.32;;;;;;;;;;4139186;28;20057;-44
2023/02/14 07:31:46;;;;;;;1.40;0.55;;;;;;;;;;4135400;28;20059;-43
2023/02/14 07:33:49;;;;;;;1.58;0.45;;;;;;;;;;4144510;28;20061;-45
2023/02/14 07:35:50;;;;;;;1.77;0.35;;;;;;;;;;4138568;28;20050;-44
2023/02/14 07:37:52;;;;;;;1.67;0.40;;;;;;;;;;4144089;28;20073;-39
2023/02/14 07:39:53;;;;;;;2.53;0.43;;;;;;;;;;4144400;28;20104;-39
2023/02/14 07:41:54;;;;;;;2.00;0.52;;;;;;;;;;4143686;28;20100;-40
2023/02/14 07:43:56;;;;;;;1.95;0.52;;;;;;;;;;4142815;28;20485;-39
2023/02/14 07:45:59;;;;;;;1.52;0.60;;;;;;;;;;4136705;28;20073;-38
2023/02/14 07:48:03;;;;;;;2.85;0.43;;;;;;;;;;4135006;28;20101;-39
2023/02/14 07:50:05;;;;;;;2.58;0.75;;;;;;;;;;4114576;28;20066;-39
2023/02/14 07:52:06;;;;;;;2.05;0.40;;;;;;;;;;4134292;28;20057;-39
2023/02/14 07:54:08;;;;;;;1.10;0.60;;;;;;;;;;4119576;28;20567;-39
2023/02/14 07:56:09;;;;;;;0.45;0.30;;;;;;;;;;4139142;28;20054;-40
2023/02/14 07:58:10;;;;;;;2.58;0.60;;;;;;;;;;4136772;28;20660;-38
2023/02/14 08:00:13;;;;;;;0.60;0.40;;;;;;;;;;4132660;28;20054;-40
2023/02/14 08:02:14;;;;;;;1.42;0.40;;;;;;;;;;4133453;28;20103;-40
2023/02/14 08:04:16;;;;;;;0.90;0.30;;;;;;;;;;4133195;28;20065;-40
2023/02/14 08:06:18;;;;;;;1.52;0.60;;;;;;;;;;4135295;28;20100;-40
2023/02/14 08:08:19;;;;;;;7.07;0.60;;;;;;;;;;4132090;28;20112;-42
2023/02/14 08:10:20;;;;;;;2.92;0.43;;;;;;;;;;4136811;28;20054;-39
2023/02/14 08:14:43;;;;;;;1.48;0.70;;;;;;;;;;4140885;28;20386;-41
2023/02/14 08:16:44;;;;;;;0.50;0.40;;;;;;;;;;4112943;28;20323;-40
2023/02/14 08:18:45;;;;;;;1.00;0.40;;;;;;;;;;4128340;28;20057;-43
2023/02/14 08:20:48;;;;;;;3.80;0.55;;;;;;;;;;4132758;28;20053;-41
2023/02/14 08:22:50;;;;;;;3.65;0.70;;;;;;;;;;4136771;28;20054;-45
2023/02/14 08:24:51;;;;;;;0.60;0.50;;;;;;;;;;4133527;28;20065;-40
2023/02/14 08:26:53;;;;;;;3.42;0.50;;;;;;;;;;4127806;28;20057;-45
2023/02/14 08:28:54;;;;;;;4.10;0.43;;;;;;;;;;4131252;28;20053;-42
2023/02/14 08:30:55;;;;;;;2.15;0.45;;;;;;;;;;4134655;28;20061;-42
2023/02/14 08:32:57;;;;;;;2.88;0.60;;;;;;;;;;4136260;28;20085;-38
2023/02/14 08:34:58;;;;;;;0.68;0.40;;;;;;;;;;4121808;28;20112;-41
2023/02/14 08:36:59;;;;;;;0.60;0.40;;;;;;;;;;4133559;28;20482;-43
2023/02/14 08:39:03;;;;;;;1.27;0.50;;;;;;;;;;4135320;28;20405;-43
2023/02/14 08:41:04;;;;;;;2.50;0.50;;;;;;;;;;4135823;28;20058;-42
2023/02/14 08:43:06;;;;;;;3.60;0.98;;;;;;;;;;4133091;28;20073;-40
2023/02/14 08:45:07;;;;;;;2.53;0.35;;;;;;;;;;4126386;28;20066;-42
2023/02/14 08:47:09;;;;;;;1.33;0.68;;;;;;;;;;4130799;28;20061;-39
2023/02/14 08:49:10;;;;;;;2.35;0.57;;;;;;;;;;4129580;28;20378;-39
2023/02/14 08:51:13;;;;;;;1.27;0.38;;;;;;;;;;4128093;28;20058;-40
2023/02/14 08:53:15;;;;;;;2.97;0.60;;;;;;;;;;4130484;28;20618;-39
2023/02/14 08:55:16;;;;;;;1.05;0.40;;;;;;;;;;4129216;28;20195;-41
2023/02/14 08:57:18;;;;;;;3.08;0.55;;;;;;;;;;4129041;28;20107;-38
2023/02/14 08:59:19;;;;;;;2.88;0.63;;;;;;;;;;4125127;28;20996;-39
2023/02/14 09:01:20;;;;;;;9.32;0.73;;;;;;;;;;4123376;28;20062;-45
2023/02/14 09:03:22;;;;;;;0.93;0.65;;;;;;;;;;4128395;28;20100;-45
2023/02/14 09:05:24;;;;;;;3.40;0.32;;;;;;;;;;4129118;28;20062;-42
2023/02/14 09:07:25;;;;;;;1.35;0.60;;;;;;;;;;4109093;28;20201;-47
2023/02/14 09:09:26;;;;;;;2.00;0.38;;;;;;;;;;4131486;28;20128;-46
2023/02/14 09:11:27;;;;;;;0.85;0.40;;;;;;;;;;4114996;28;20474;-47
2023/02/14 09:13:29;;;;;;;1.60;0.47;;;;;;;;;;4134536;28;20701;-45
2023/02/14 09:15:30;;;;;;;2.25;0.47;;;;;;;;;;4128392;28;20476;-41
2023/02/14 09:17:33;;;;;;;1.38;0.63;;;;;;;;;;4135313;28;20065;-42
2023/02/14 09:19:35;;;;;;;0.98;0.50;;;;;;;;;;4137771;28;20065;-43
2023/02/14 09:21:37;;;;;;;4.82;0.60;;;;;;;;;;4131124;28;20100;-44
2023/02/14 09:23:39;;;;;;;0.85;0.40;;;;;;;;;;4123839;28;20054;-42
2023/02/14 09:25:40;;;;;;;2.17;0.40;;;;;;;;;;4127299;28;20074;-40
2023/02/14 09:27:41;;;;;;;1.92;0.77;;;;;;;;;;4133901;28;20069;-40
2023/02/14 09:29:42;;;;;;;3.63;0.50;;;;;;;;;;4132834;28;20555;-39
2023/02/14 09:31:44;;;;;;;1.58;0.57;;;;;;;;;;4132386;28;20539;-40
2023/02/14 09:33:46;;;;;;;4.97;0.55;;;;;;;;;;4132020;28;20501;-40
2023/02/14 09:35:47;;;;;;;2.60;0.50;;;;;;;;;;4112959;28;20061;-40
2023/02/14 09:40:13;;;;;;;4.50;0.70;;;;;;;;;;4132955;28;20466;-41
2023/02/14 09:42:30;;;;;;;3.75;0.95;;;;;;;;;;4128657;28;20057;-39
2023/02/14 09:44:41;;;;;;;2.28;0.60;;;;;;;;;;4098805;28;20094;-42
2023/02/14 09:46:51;;;;;;;1.92;0.52;;;;;;;;;;4129738;28;20061;-40
2023/02/14 09:48:53;;;;;;;2.08;0.70;;;;;;;;;;4118976;28;20070;-42
2023/02/14 09:51:01;;;;;;;3.28;0.60;;;;;;;;;;4120367;28;20493;-40
2023/02/14 09:53:12;;;;;;;6.65;0.73;;;;;;;;;;4107709;28;20064;-43
2023/02/14 09:55:15;;;;;;;3.20;0.65;;;;;;;;;;4126400;28;20160;-46
2023/02/14 09:57:54;;;;;;;3.22;0.70;;;;;;;;;;4102981;28;20054;-42
2023/02/14 10:00:22;;;;;;;1.42;0.50;;;;;;;;;;4120541;28;20054;-41
2023/02/14 10:02:48;;;;;;;1.13;0.88;;;;;;;;;;4100934;28;21722;-42
2023/02/14 10:05:20;;;;;;;3.60;0.80;;;;;;;;;;4131027;28;20057;-43
2023/02/14 10:07:33;;;;;;;2.80;0.50;;;;;;;;;;4117721;28;20054;-44
2023/02/14 10:09:59;;;;;;;4.18;0.60;;;;;;;;;;4120196;28;20050;-46
2023/02/14 10:12:00;;;;;;;5.63;0.70;;;;;;;;;;4129127;28;20294;-43
2023/02/14 10:14:13;;;;;;;3.38;0.70;;;;;;;;;;4122914;28;20080;-43
2023/02/14 10:16:31;;;;;;;1.48;0.65;;;;;;;;;;4119865;28;21000;-47
2023/02/14 10:18:37;;;;;;;2.70;0.63;;;;;;;;;;4097346;28;20494;-44
2023/02/14 10:20:59;;;;;;;2.60;0.70;;;;;;;;;;4114768;28;20086;-44
2023/02/14 10:23:09;;;;;;;2.65;0.80;;;;;;;;;;4117330;28;20128;-44
2023/02/14 10:25:22;;;;;;;1.02;0.63;;;;;;;;;;4119864;28;20473;-45
2023/02/14 10:27:35;;;;;;;5.13;0.50;;;;;;;;;;4095761;28;20055;-44
2023/02/14 10:29:36;;;;;;;5.95;0.70;;;;;;;;;;4112937;28;20690;-44
2023/02/14 10:31:57;;;;;;;2.60;0.50;;;;;;;;;;4082778;28;20059;-48
2023/02/14 10:34:12;;;;;;;6.85;0.60;;;;;;;;;;4109383;28;20109;-44
2023/02/14 10:36:37;;;;;;;5.93;0.95;;;;;;;;;;4087429;28;20582;-40
2023/02/14 10:39:03;;;;;;;3.92;0.80;;;;;;;;;;4111688;28;20058;-45
2023/02/14 10:41:31;;;;;;;4.82;0.68;;;;;;;;;;4111764;28;20498;-41
2023/02/14 10:43:56;;;;;;;1.35;0.65;;;;;;;;;;4099300;28;20058;-45
2023/02/14 10:46:13;;;;;;;4.63;1.35;;;;;;;;;;4111868;28;20128;-41
2023/02/14 10:48:24;;;;;;;2.13;0.63;;;;;;;;;;4111682;28;20065;-44
2023/02/14 10:50:44;;;;;;;5.35;0.50;;;;;;;;;;4113781;28;20054;-39
2023/02/14 10:53:01;;;;;;;1.50;0.52;;;;;;;;;;4092217;28;20121;-43
2023/02/14 10:55:27;;;;;;;2.92;0.68;;;;;;;;;;4112953;28;20058;-41
2023/02/14 10:57:33;;;;;;;2.33;0.60;;;;;;;;;;4116830;28;20105;-43
2023/02/14 10:59:43;;;;;;;6.30;0.60;;;;;;;;;;4100697;28;20058;-45
2023/02/14 11:01:45;;;;;;;1.98;0.73;;;;;;;;;;4103275;28;20085;-43
2023/02/14 11:03:57;;;;;;;1.02;0.65;;;;;;;;;;4095438;28;20097;-42
2023/02/14 11:05:58;;;;;;;3.13;0.57;;;;;;;;;;4109645;28;20058;-42
2023/02/14 11:08:00;;;;;;;4.97;0.73;;;;;;;;;;4109642;28;20400;-43
2023/02/14 11:10:02;;;;;;;3.13;0.70;;;;;;;;;;4109242;28;20050;-42
2023/02/14 11:12:03;;;;;;;1.45;0.50;;;;;;;;;;4116345;28;20105;-43
2023/02/14 11:14:21;;;;;;;1.55;0.60;;;;;;;;;;4119408;28;20058;-42
2023/02/14 11:16:33;;;;;;;3.00;0.70;;;;;;;;;;4092643;28;20058;-42
2023/02/14 11:18:38;;;;;;;2.67;0.82;;;;;;;;;;4129932;28;20494;-43
2023/02/14 11:20:40;;;;;;;4.55;0.75;;;;;;;;;;4105739;28;20534;-42
2023/02/14 11:22:41;;;;;;;4.85;0.70;;;;;;;;;;4110883;28;20593;-42
2023/02/14 11:24:44;;;;;;;8.65;0.95;;;;;;;;;;4123429;28;20058;-41
2023/02/14 11:26:47;;;;;;;2.17;0.70;;;;;;;;;;4121197;28;20120;-42
2023/02/14 11:28:58;;;;;;;7.10;0.75;;;;;;;;;;4113030;28;20105;-42
2023/02/14 11:31:00;;;;;;;2.88;0.70;;;;;;;;;;4113903;28;20100;-42
2023/02/14 11:33:03;;;;;;;2.50;0.60;;;;;;;;;;4112935;28;20050;-43
2023/02/14 11:35:07;;;;;;;2.72;0.73;;;;;;;;;;4125506;28;20417;-42
2023/02/14 11:37:42;;;;;;;1.60;0.50;;;;;;;;;;4116407;28;20573;-42
2023/02/14 11:39:44;;;;;;;1.65;0.30;;;;;;;;;;4111010;28;20061;-43
2023/02/14 11:41:53;;;;;;;3.42;0.55;;;;;;;;;;4123559;28;20058;-43
2023/02/14 11:44:11;;;;;;;8.27;0.98;;;;;;;;;;4133491;28;20177;-43
2023/02/14 11:46:15;;;;;;;3.70;0.63;;;;;;;;;;4123559;28;20123;-42
2023/02/14 11:48:27;;;;;;;2.38;0.50;;;;;;;;;;4101373;28;20514;-43
2023/02/14 11:50:29;;;;;;;2.22;0.65;;;;;;;;;;4122845;28;20581;-42
2023/02/14 11:52:32;;;;;;;7.88;1.00;;;;;;;;;;4118195;28;20982;-43
2023/02/14 11:54:36;;;;;;;6.03;0.50;;;;;;;;;;4124033;28;20108;-41
2023/02/14 11:56:44;;;;;;;2.25;0.63;;;;;;;;;;4126568;28;20151;-42
2023/02/14 11:58:57;;;;;;;2.95;0.50;;;;;;;;;;4121079;28;20060;-43
2023/02/14 12:00:59;;;;;;;3.05;0.60;;;;;;;;;;4074313;28;20122;-42
2023/02/14 12:03:05;;;;;;;4.10;0.75;;;;;;;;;;4120474;28;20125;-42
2023/02/14 12:05:22;;;;;;;2.15;0.55;;;;;;;;;;4103365;28;20105;-41
2023/02/14 12:07:27;;;;;;;2.55;0.70;;;;;;;;;;4126631;28;20714;-43
2023/02/14 12:09:30;;;;;;;2.70;0.50;;;;;;;;;;4126414;28;21039;-41
2023/02/14 12:11:32;;;;;;;3.28;1.23;;;;;;;;;;4122117;28;20505;-41
2023/02/14 12:13:33;;;;;;;4.50;0.65;;;;;;;;;;4124468;28;20767;-43
2023/02/14 12:15:37;;;;;;;5.93;0.50;;;;;;;;;;4104170;28;20070;-41
2023/02/14 12:17:39;;;;;;;2.70;0.77;;;;;;;;;;4121109;28;20064;-41
2023/02/14 12:19:54;;;;;;;2.72;0.50;;;;;;;;;;4120617;28;20172;-41
2023/02/14 12:21:58;;;;;;;3.70;0.77;;;;;;;;;;4106087;28;21311;-42
2023/02/14 12:24:03;;;;;;;2.28;0.70;;;;;;;;;;4109138;28;20440;-41
2023/02/14 12:26:27;;;;;;;2.65;0.80;;;;;;;;;;4118799;28;20058;-41
2023/02/14 12:28:37;;;;;;;2.88;0.68;;;;;;;;;;4121864;28;20062;-44
2023/02/14 12:30:39;;;;;;;1.33;0.77;;;;;;;;;;4101689;28;20105;-42
2023/02/14 12:32:52;;;;;;;3.78;0.77;;;;;;;;;;4101286;28;20440;-42
2023/02/14 12:35:02;;;;;;;5.55;0.60;;;;;;;;;;4125476;28;20715;-43
2023/02/14 12:37:13;;;;;;;1.35;0.80;;;;;;;;;;4114158;28;20073;-41
2023/02/14 12:39:23;;;;;;;5.20;0.52;;;;;;;;;;4126248;28;20416;-41
2023/02/14 12:41:51;;;;;;;4.38;0.57;;;;;;;;;;4121805;28;20057;-41
2023/02/14 12:43:54;;;;;;;2.67;0.88;;;;;;;;;;4105961;28;21004;-40
2023/02/14 12:46:14;;;;;;;2.75;0.70;;;;;;;;;;4105163;28;20410;-41
2023/02/14 12:48:31;;;;;;;2.90;0.68;;;;;;;;;;4117072;28;20430;-42